createdAt,value
2023-09-30T00:00:26.089Z,81.80
2023-09-30T00:01:26.068Z,81.80
2023-09-30T00:02:25.963Z,81.40
2023-09-30T00:03:26.785Z,81.20
2023-09-30T00:04:26.018Z,81.20
2023-09-30T00:05:25.918Z,81.40
2023-09-30T00:06:25.980Z,81.30
2023-09-30T00:07:25.908Z,81.40
2023-09-30T00:08:25.928Z,81.20
2023-09-30T00:09:25.882Z,81.50
2023-09-30T00:10:25.899Z,81.64
2023-09-30T00:11:25.867Z,81.64
2023-09-30T00:12:25.885Z,81.74
2023-09-30T00:13:25.834Z,81.54
2023-09-30T00:14:25.840Z,81.74
2023-09-30T00:15:26.019Z,81.84
2023-09-30T00:16:25.876Z,81.84
2023-09-30T00:17:25.781Z,82.14
2023-09-30T00:18:25.807Z,82.14
2023-09-30T00:19:25.758Z,82.35
2023-09-30T00:20:26.280Z,82.55
2023-09-30T00:21:26.615Z,82.75
2023-09-30T00:22:25.735Z,82.89
2023-09-30T00:23:25.716Z,83.05
2023-09-30T00:24:25.709Z,83.50
2023-09-30T00:25:25.716Z,83.40
2023-09-30T00:26:25.683Z,83.40
2023-09-30T00:27:25.715Z,83.40
2023-09-30T00:28:25.658Z,83.60
2023-09-30T00:29:25.629Z,83.80
2023-09-30T00:30:25.734Z,83.90
2023-09-30T00:31:25.679Z,83.70
2023-09-30T00:32:25.624Z,83.70
2023-09-30T00:33:25.652Z,83.50
2023-09-30T00:34:25.590Z,83.44
2023-09-30T00:35:25.567Z,83.74
2023-09-30T00:36:26.130Z,84.04
2023-09-30T00:37:25.548Z,83.84
2023-09-30T00:38:25.550Z,83.64
2023-09-30T00:39:25.561Z,83.74
2023-09-30T00:40:25.527Z,84.04
2023-09-30T00:41:25.548Z,84.04
2023-09-30T00:42:25.535Z,83.74
2023-09-30T00:43:25.506Z,83.84
2023-09-30T00:44:25.461Z,83.88
2023-09-30T00:45:25.510Z,83.88
2023-09-30T00:46:25.491Z,83.88
2023-09-30T00:47:25.523Z,83.78
2023-09-30T00:48:25.971Z,83.68
2023-09-30T00:49:25.415Z,83.78
2023-09-30T00:50:25.405Z,83.78
2023-09-30T00:51:25.475Z,83.88
2023-09-30T00:52:25.402Z,84.08
2023-09-30T00:53:25.376Z,84.12
2023-09-30T00:54:25.406Z,83.92
2023-09-30T00:55:25.344Z,83.92
2023-09-30T00:56:26.201Z,83.72
2023-09-30T00:57:26.080Z,84.02
2023-09-30T00:58:25.307Z,84.02
2023-09-30T00:59:25.303Z,83.92
2023-09-30T01:00:25.331Z,83.82
2023-09-30T01:01:25.319Z,83.92
2023-09-30T01:02:25.295Z,83.92
2023-09-30T01:03:25.494Z,83.92
2023-09-30T01:04:25.312Z,83.72
2023-09-30T01:05:25.234Z,83.86
2023-09-30T01:06:25.279Z,83.96
2023-09-30T01:07:25.222Z,84.06
2023-09-30T01:08:25.211Z,84.06
2023-09-30T01:09:25.217Z,84.06
2023-09-30T01:10:25.167Z,84.16
2023-09-30T01:11:26.106Z,84.27
2023-09-30T01:12:25.182Z,84.27
2023-09-30T01:13:25.139Z,84.27
2023-09-30T01:14:25.122Z,84.36
2023-09-30T01:15:25.165Z,84.36
2023-09-30T01:16:25.687Z,84.27
2023-09-30T01:17:25.121Z,84.47
2023-09-30T01:18:25.705Z,84.56
2023-09-30T01:19:25.084Z,84.61
2023-09-30T01:20:25.077Z,84.81
2023-09-30T01:21:25.105Z,84.81
2023-09-30T01:22:25.055Z,84.81
2023-09-30T01:23:25.033Z,84.81
2023-09-30T01:24:25.549Z,84.81
2023-09-30T01:25:25.005Z,85.01
2023-09-30T01:26:24.997Z,85.11
2023-09-30T01:27:24.989Z,85.11
2023-09-30T01:28:24.980Z,85.11
2023-09-30T01:29:24.950Z,85.42
2023-09-30T01:30:24.968Z,85.42
2023-09-30T01:31:25.002Z,85.42
2023-09-30T01:32:24.932Z,85.52
2023-09-30T01:33:24.930Z,85.52
2023-09-30T01:34:24.889Z,85.62
2023-09-30T01:35:24.890Z,85.46
2023-09-30T01:36:24.948Z,85.66
2023-09-30T01:37:24.892Z,85.76
2023-09-30T01:38:24.864Z,85.86
2023-09-30T01:39:24.943Z,85.86
2023-09-30T01:40:24.819Z,85.86
2023-09-30T01:41:24.815Z,85.86
2023-09-30T01:42:25.494Z,85.96
2023-09-30T01:43:24.820Z,86.07
2023-09-30T01:44:24.782Z,86.16
2023-09-30T01:45:25.752Z,86.07
2023-09-30T01:46:24.773Z,86.16
2023-09-30T01:47:24.798Z,86.27
2023-09-30T01:48:24.784Z,86.27
2023-09-30T01:49:24.721Z,86.27
2023-09-30T01:50:25.683Z,86.37
2023-09-30T01:51:24.773Z,86.37
2023-09-30T01:52:24.681Z,86.37
2023-09-30T01:53:24.699Z,86.47
2023-09-30T01:54:24.740Z,86.47
2023-09-30T01:55:24.654Z,86.37
2023-09-30T01:56:24.681Z,86.51
2023-09-30T01:57:24.649Z,86.61
2023-09-30T01:58:24.631Z,86.61
2023-09-30T01:59:24.614Z,86.71
2023-09-30T02:00:24.648Z,86.61
2023-09-30T02:01:24.609Z,86.71
2023-09-30T02:02:24.576Z,86.91
2023-09-30T02:03:24.857Z,86.82
2023-09-30T02:04:24.697Z,86.82
2023-09-30T02:05:24.543Z,86.71
2023-09-30T02:06:24.539Z,86.71
2023-09-30T02:07:24.532Z,86.76
2023-09-30T02:08:24.924Z,86.86
2023-09-30T02:09:24.523Z,87.16
2023-09-30T02:10:24.478Z,87.37
2023-09-30T02:11:24.465Z,87.46
2023-09-30T02:12:24.546Z,87.57
2023-09-30T02:13:25.602Z,87.57
2023-09-30T02:14:24.415Z,87.67
2023-09-30T02:15:24.463Z,87.87
2023-09-30T02:16:24.483Z,88.07
2023-09-30T02:17:25.236Z,88.07
2023-09-30T02:18:24.403Z,88.18
2023-09-30T02:19:24.393Z,88.28
2023-09-30T02:20:25.130Z,88.58
2023-09-30T02:21:24.364Z,88.68
2023-09-30T02:22:24.340Z,88.68
2023-09-30T02:23:24.322Z,88.89
2023-09-30T02:24:24.454Z,88.99
2023-09-30T02:25:24.313Z,88.99
2023-09-30T02:26:24.281Z,89.09
2023-09-30T02:27:24.341Z,88.99
2023-09-30T02:28:24.266Z,89.09
2023-09-30T02:29:24.283Z,89.19
2023-09-30T02:30:25.665Z,89.29
2023-09-30T02:31:24.257Z,89.50
2023-09-30T02:32:24.213Z,89.64
2023-09-30T02:33:24.349Z,89.84
2023-09-30T02:34:24.238Z,89.94
2023-09-30T02:35:24.192Z,89.94
2023-09-30T02:36:24.254Z,90.14
2023-09-30T02:37:24.170Z,90.25
2023-09-30T02:38:24.192Z,90.35
2023-09-30T02:39:24.301Z,90.35
2023-09-30T02:40:24.130Z,90.45
2023-09-30T02:41:24.118Z,90.55
2023-09-30T02:42:24.168Z,90.55
2023-09-30T02:43:24.122Z,90.66
2023-09-30T02:44:24.099Z,90.75
2023-09-30T02:45:24.092Z,90.75
2023-09-30T02:46:24.058Z,90.96
2023-09-30T02:47:24.069Z,91.06
2023-09-30T02:48:24.126Z,91.16
2023-09-30T02:49:24.053Z,91.36
2023-09-30T02:50:24.565Z,91.47
2023-09-30T02:51:24.071Z,91.47
2023-09-30T02:52:23.987Z,91.67
2023-09-30T02:53:24.010Z,91.67
2023-09-30T02:54:24.001Z,91.67
2023-09-30T02:55:23.969Z,91.67
2023-09-30T02:56:23.940Z,91.67
2023-09-30T02:57:23.962Z,91.77
2023-09-30T02:58:23.943Z,91.91
2023-09-30T02:59:23.945Z,91.91
2023-09-30T03:00:24.065Z,92.02
2023-09-30T03:01:24.076Z,92.12
2023-09-30T03:02:24.413Z,92.12
2023-09-30T03:03:24.435Z,92.12
2023-09-30T03:04:23.911Z,92.22
2023-09-30T03:05:23.852Z,92.12
2023-09-30T03:06:23.850Z,92.22
2023-09-30T03:07:23.867Z,92.22
2023-09-30T03:08:23.840Z,92.22
2023-09-30T03:09:23.923Z,92.22
2023-09-30T03:10:23.776Z,92.32
2023-09-30T03:11:24.442Z,92.42
2023-09-30T03:12:23.797Z,92.32
2023-09-30T03:13:23.774Z,92.42
2023-09-30T03:14:23.733Z,92.42
2023-09-30T03:15:23.807Z,92.52
2023-09-30T03:16:23.721Z,92.63
2023-09-30T03:17:23.713Z,92.67
2023-09-30T03:18:24.553Z,92.87
2023-09-30T03:19:23.688Z,92.97
2023-09-30T03:20:23.693Z,93.07
2023-09-30T03:21:24.240Z,93.18
2023-09-30T03:22:23.644Z,93.28
2023-09-30T03:23:23.662Z,93.28
2023-09-30T03:24:23.648Z,93.28
2023-09-30T03:25:23.775Z,93.38
2023-09-30T03:26:23.615Z,93.48
2023-09-30T03:27:24.169Z,93.59
2023-09-30T03:28:23.603Z,93.68
2023-09-30T03:29:23.572Z,93.68
2023-09-30T03:30:24.099Z,93.68
2023-09-30T03:31:23.589Z,93.68
2023-09-30T03:32:23.531Z,93.59
2023-09-30T03:33:23.639Z,93.79
2023-09-30T03:34:23.502Z,93.79
2023-09-30T03:35:23.521Z,93.79
2023-09-30T03:36:23.485Z,93.93
2023-09-30T03:37:24.260Z,94.13
2023-09-30T03:38:23.473Z,94.34
2023-09-30T03:39:23.475Z,94.44
2023-09-30T03:40:23.452Z,94.44
2023-09-30T03:41:23.451Z,94.44
2023-09-30T03:42:23.464Z,94.44
2023-09-30T03:43:23.422Z,94.34
2023-09-30T03:44:23.381Z,94.34
2023-09-30T03:45:23.433Z,94.34
2023-09-30T03:46:23.387Z,94.34
2023-09-30T03:47:23.355Z,94.44
2023-09-30T03:48:23.384Z,94.44
2023-09-30T03:49:23.416Z,94.54
2023-09-30T03:50:23.344Z,94.54
2023-09-30T03:51:23.370Z,94.54
2023-09-30T03:52:23.292Z,94.64
2023-09-30T03:53:23.315Z,94.64
2023-09-30T03:54:23.313Z,94.54
2023-09-30T03:55:23.270Z,94.54
2023-09-30T03:56:23.275Z,94.64
2023-09-30T03:57:23.284Z,94.74
2023-09-30T03:58:23.238Z,94.74
2023-09-30T03:59:23.219Z,94.79
2023-09-30T04:00:23.278Z,94.85
2023-09-30T04:01:23.236Z,94.74
2023-09-30T04:02:23.180Z,94.85
2023-09-30T04:03:23.298Z,94.85
2023-09-30T04:04:23.229Z,94.74
2023-09-30T04:05:23.150Z,94.74
2023-09-30T04:06:23.189Z,94.74
2023-09-30T04:07:23.157Z,94.74
2023-09-30T04:08:23.112Z,94.74
2023-09-30T04:09:23.117Z,94.74
2023-09-30T04:10:23.087Z,94.74
2023-09-30T04:11:23.094Z,94.79
2023-09-30T04:12:23.118Z,94.89
2023-09-30T04:13:23.077Z,94.79
2023-09-30T04:14:23.040Z,94.79
2023-09-30T04:15:23.084Z,94.79
2023-09-30T04:16:23.028Z,94.89
2023-09-30T04:17:23.016Z,94.89
2023-09-30T04:18:23.028Z,94.89
2023-09-30T04:19:22.994Z,94.89
2023-09-30T04:20:23.001Z,94.89
2023-09-30T04:21:22.999Z,95.09
2023-09-30T04:22:22.948Z,95.00
2023-09-30T04:23:22.950Z,95.20
2023-09-30T04:24:22.946Z,95.30
2023-09-30T04:25:22.917Z,95.20
2023-09-30T04:26:22.920Z,95.30
2023-09-30T04:27:23.025Z,95.40
2023-09-30T04:28:22.881Z,95.50
2023-09-30T04:29:22.894Z,95.61
2023-09-30T04:30:22.921Z,95.75
2023-09-30T04:31:23.264Z,95.85
2023-09-30T04:32:22.982Z,95.85
2023-09-30T04:33:22.904Z,95.95
2023-09-30T04:34:22.844Z,95.85
2023-09-30T04:35:22.933Z,95.85
2023-09-30T04:36:22.818Z,95.85
2023-09-30T04:37:22.830Z,95.85
2023-09-30T04:38:22.776Z,95.85
2023-09-30T04:39:22.787Z,95.85
2023-09-30T04:40:22.735Z,95.85
2023-09-30T04:41:22.762Z,95.85
2023-09-30T04:42:22.756Z,95.85
2023-09-30T04:43:22.709Z,95.95
2023-09-30T04:44:22.704Z,96.06
2023-09-30T04:45:22.772Z,96.06
2023-09-30T04:46:22.745Z,96.06
2023-09-30T04:47:22.676Z,96.06
2023-09-30T04:48:22.655Z,96.06
2023-09-30T04:49:22.646Z,96.06
2023-09-30T04:50:22.641Z,95.95
2023-09-30T04:51:22.652Z,96.06
2023-09-30T04:52:22.602Z,96.06
2023-09-30T04:53:22.605Z,96.06
2023-09-30T04:54:22.582Z,96.06
2023-09-30T04:55:22.583Z,96.15
2023-09-30T04:56:22.590Z,96.15
2023-09-30T04:57:22.602Z,96.15
2023-09-30T04:58:24.996Z,96.15
2023-09-30T04:59:22.518Z,96.15
2023-09-30T05:00:23.545Z,96.15
2023-09-30T05:01:22.594Z,96.15
2023-09-30T05:02:22.493Z,96.26
2023-09-30T05:03:23.325Z,96.26
2023-09-30T05:04:22.506Z,96.26
2023-09-30T05:05:22.451Z,96.26
2023-09-30T05:06:22.494Z,96.36
2023-09-30T05:07:22.427Z,96.46
2023-09-30T05:08:22.431Z,96.56
2023-09-30T05:09:22.407Z,96.56
2023-09-30T05:10:22.416Z,96.56
2023-09-30T05:11:22.400Z,96.56
2023-09-30T05:12:22.460Z,96.67
2023-09-30T05:13:22.364Z,96.56
2023-09-30T05:14:22.372Z,96.56
2023-09-30T05:15:22.383Z,96.46
2023-09-30T05:16:22.513Z,96.36
2023-09-30T05:17:22.880Z,96.36
2023-09-30T05:18:22.436Z,96.36
2023-09-30T05:19:22.292Z,96.26
2023-09-30T05:20:22.315Z,96.26
2023-09-30T05:21:22.316Z,96.26
2023-09-30T05:22:22.255Z,96.36
2023-09-30T05:23:22.253Z,96.36
2023-09-30T05:24:22.277Z,96.36
2023-09-30T05:25:22.210Z,96.36
2023-09-30T05:26:22.237Z,96.36
2023-09-30T05:27:22.818Z,96.26
2023-09-30T05:28:22.188Z,96.15
2023-09-30T05:29:22.169Z,96.06
2023-09-30T05:30:22.198Z,96.06
2023-09-30T05:31:22.279Z,96.06
2023-09-30T05:32:22.148Z,96.06
2023-09-30T05:33:22.136Z,96.06
2023-09-30T05:34:22.117Z,95.95
2023-09-30T05:35:22.099Z,96.06
2023-09-30T05:36:22.159Z,96.15
2023-09-30T05:37:22.081Z,96.15
2023-09-30T05:38:22.076Z,96.15
2023-09-30T05:39:22.079Z,95.95
2023-09-30T05:40:22.055Z,95.95
2023-09-30T05:41:22.046Z,96.06
2023-09-30T05:42:22.032Z,95.95
2023-09-30T05:43:22.012Z,95.95
2023-09-30T05:44:21.997Z,95.85
2023-09-30T05:45:22.021Z,95.95
2023-09-30T05:46:22.030Z,95.95
2023-09-30T05:47:21.983Z,96.06
2023-09-30T05:48:22.040Z,95.95
2023-09-30T05:49:21.944Z,95.85
2023-09-30T05:50:21.952Z,95.65
2023-09-30T05:51:21.942Z,95.54
2023-09-30T05:52:21.961Z,95.45
2023-09-30T05:53:21.927Z,95.30
2023-09-30T05:54:21.928Z,95.24
2023-09-30T05:55:21.957Z,95.20
2023-09-30T05:56:21.922Z,95.09
2023-09-30T05:57:21.900Z,94.89
2023-09-30T05:58:22.026Z,94.79
2023-09-30T05:59:21.829Z,94.59
2023-09-30T06:00:21.916Z,94.69
2023-09-30T06:01:21.845Z,94.69
2023-09-30T06:02:21.808Z,94.48
2023-09-30T06:03:21.868Z,94.13
2023-09-30T06:04:21.814Z,93.93
2023-09-30T06:05:21.748Z,93.73
2023-09-30T06:06:21.767Z,93.63
2023-09-30T06:07:21.733Z,93.32
2023-09-30T06:08:21.755Z,92.87
2023-09-30T06:09:21.723Z,92.67
2023-09-30T06:10:21.700Z,92.67
2023-09-30T06:11:21.684Z,92.57
2023-09-30T06:12:21.694Z,92.26
2023-09-30T06:13:21.696Z,92.26
2023-09-30T06:14:21.665Z,92.16
2023-09-30T06:15:21.689Z,91.86
2023-09-30T06:16:21.702Z,91.51
2023-09-30T06:17:21.613Z,90.96
2023-09-30T06:18:21.644Z,88.95
2023-09-30T06:19:21.612Z,86.73
2023-09-30T06:20:21.585Z,86.13
2023-09-30T06:21:21.651Z,86.13
2023-09-30T06:22:21.569Z,85.72
2023-09-30T06:23:21.580Z,86.07
2023-09-30T06:24:21.596Z,87.12
2023-09-30T06:25:21.621Z,87.22
2023-09-30T06:26:21.518Z,87.67
2023-09-30T06:27:21.506Z,88.28
2023-09-30T06:28:21.493Z,88.58
2023-09-30T06:29:21.508Z,88.78
2023-09-30T06:30:21.721Z,88.93
2023-09-30T06:31:21.515Z,89.33
2023-09-30T06:32:21.450Z,90.09
2023-09-30T06:33:21.460Z,90.29
2023-09-30T06:34:21.428Z,90.70
2023-09-30T06:35:23.351Z,91.25
2023-09-30T06:36:21.446Z,91.35
2023-09-30T06:37:21.382Z,91.55
2023-09-30T06:38:21.381Z,91.75
2023-09-30T06:39:21.376Z,91.65
2023-09-30T06:40:21.402Z,91.75
2023-09-30T06:41:21.335Z,91.65
2023-09-30T06:42:21.335Z,91.45
2023-09-30T06:43:21.314Z,91.55
2023-09-30T06:44:21.319Z,91.55
2023-09-30T06:45:21.360Z,91.55
2023-09-30T06:46:21.306Z,91.75
2023-09-30T06:47:21.268Z,91.65
2023-09-30T06:48:21.274Z,91.55
2023-09-30T06:49:21.274Z,91.45
2023-09-30T06:50:21.240Z,91.45
2023-09-30T06:51:21.270Z,91.35
2023-09-30T06:52:21.224Z,91.55
2023-09-30T06:53:21.201Z,91.45
2023-09-30T06:54:21.204Z,91.35
2023-09-30T06:55:21.181Z,91.35
2023-09-30T06:56:21.196Z,91.30
2023-09-30T06:57:21.205Z,91.20
2023-09-30T06:58:21.142Z,91.25
2023-09-30T06:59:21.139Z,91.55
2023-09-30T07:00:21.170Z,91.55
2023-09-30T07:01:21.173Z,91.45
2023-09-30T07:02:21.104Z,91.25
2023-09-30T07:03:24.064Z,91.20
2023-09-30T07:04:21.180Z,91.20
2023-09-30T07:05:21.061Z,90.90
2023-09-30T07:06:21.095Z,90.49
2023-09-30T07:07:21.085Z,90.49
2023-09-30T07:08:21.028Z,90.39
2023-09-30T07:09:21.520Z,90.49
2023-09-30T07:10:21.037Z,90.14
2023-09-30T07:11:20.997Z,90.05
2023-09-30T07:12:21.039Z,89.74
2023-09-30T07:13:20.967Z,89.54
2023-09-30T07:14:20.963Z,89.23
2023-09-30T07:15:20.984Z,89.23
2023-09-30T07:16:20.972Z,89.13
2023-09-30T07:17:20.970Z,89.23
2023-09-30T07:18:21.070Z,89.23
2023-09-30T07:19:20.895Z,89.09
2023-09-30T07:20:20.917Z,89.13
2023-09-30T07:21:20.900Z,89.33
2023-09-30T07:22:29.839Z,89.19
2023-09-30T07:23:21.151Z,89.09
2023-09-30T07:24:20.871Z,88.68
2023-09-30T07:25:20.850Z,88.78
2023-09-30T07:26:20.834Z,89.03
2023-09-30T07:27:27.692Z,89.19
2023-09-30T07:28:20.804Z,89.03
2023-09-30T07:29:20.790Z,89.03
2023-09-30T07:30:20.867Z,89.03
2023-09-30T07:31:20.800Z,89.19
2023-09-30T07:32:20.767Z,88.99
2023-09-30T07:33:20.857Z,88.68
2023-09-30T07:34:20.827Z,88.48
2023-09-30T07:35:20.738Z,88.58
2023-09-30T07:36:20.737Z,88.28
2023-09-30T07:37:20.689Z,88.07
2023-09-30T07:38:20.694Z,88.18
2023-09-30T07:39:20.705Z,88.18
2023-09-30T07:40:20.690Z,88.48
2023-09-30T07:41:20.657Z,88.18
2023-09-30T07:42:20.652Z,88.38
2023-09-30T07:43:20.628Z,88.28
2023-09-30T07:44:20.612Z,88.18
2023-09-30T07:45:20.636Z,88.18
2023-09-30T07:46:20.721Z,88.07
2023-09-30T07:47:20.584Z,88.28
2023-09-30T07:48:20.615Z,88.48
2023-09-30T07:49:20.544Z,88.28
2023-09-30T07:50:20.601Z,88.38
2023-09-30T07:51:20.560Z,88.48
2023-09-30T07:52:20.527Z,88.18
2023-09-30T07:53:20.512Z,88.38
2023-09-30T07:55:20.483Z,88.78
2023-09-30T07:56:20.469Z,88.38
2023-09-30T07:57:20.505Z,88.38
2023-09-30T07:58:20.445Z,88.28
2023-09-30T07:59:20.435Z,88.07
2023-09-30T08:00:20.442Z,88.28
2023-09-30T08:01:20.439Z,88.18
2023-09-30T08:02:20.426Z,88.07
2023-09-30T08:03:20.450Z,88.18
2023-09-30T08:04:20.460Z,88.18
2023-09-30T08:05:20.365Z,88.28
2023-09-30T08:06:20.421Z,88.07
2023-09-30T08:07:20.379Z,88.18
2023-09-30T08:08:20.344Z,88.23
2023-09-30T08:09:20.381Z,88.13
2023-09-30T08:10:20.316Z,87.52
2023-09-30T08:11:20.301Z,87.73
2023-09-30T08:12:20.348Z,87.63
2023-09-30T08:13:20.276Z,87.52
2023-09-30T08:14:20.276Z,87.18
2023-09-30T08:15:20.360Z,86.77
2023-09-30T08:16:22.165Z,86.88
2023-09-30T08:17:20.255Z,86.88
2023-09-30T08:18:20.256Z,86.47
2023-09-30T08:19:20.775Z,86.27
2023-09-30T08:20:20.215Z,86.13
2023-09-30T08:21:20.228Z,85.62
2023-09-30T08:22:20.215Z,85.42
2023-09-30T08:23:20.167Z,85.62
2023-09-30T08:24:20.233Z,85.42
2023-09-30T08:25:20.137Z,85.62
2023-09-30T08:26:20.162Z,85.38
2023-09-30T08:27:20.162Z,84.77
2023-09-30T08:28:20.124Z,84.77
2023-09-30T08:29:20.092Z,84.36
2023-09-30T08:30:20.154Z,84.67
2023-09-30T08:31:20.117Z,83.76
2023-09-30T08:32:20.091Z,84.06
2023-09-30T08:33:20.084Z,84.06
2023-09-30T08:34:20.049Z,83.76
2023-09-30T08:35:20.042Z,83.86
2023-09-30T08:36:20.275Z,84.27
2023-09-30T08:37:20.027Z,84.27
2023-09-30T08:38:20.012Z,84.47
2023-09-30T08:39:20.034Z,84.56
2023-09-30T08:40:19.978Z,84.12
2023-09-30T08:41:19.956Z,83.61
2023-09-30T08:42:20.020Z,83.11
2023-09-30T08:43:20.017Z,83.21
2023-09-30T08:44:19.956Z,83.31
2023-09-30T08:45:19.941Z,83.31
2023-09-30T08:46:19.996Z,83.01
2023-09-30T08:47:19.896Z,83.21
2023-09-30T08:48:19.900Z,83.21
2023-09-30T08:49:19.895Z,83.21
2023-09-30T08:50:19.865Z,83.11
2023-09-30T08:51:21.727Z,83.21
2023-09-30T08:52:19.845Z,83.41
2023-09-30T08:53:19.818Z,83.21
2023-09-30T08:54:19.868Z,83.41
2023-09-30T08:55:19.800Z,83.11
2023-09-30T08:56:19.802Z,82.60
2023-09-30T08:57:19.817Z,82.87
2023-09-30T08:58:19.785Z,82.87
2023-09-30T08:59:19.782Z,82.56
2023-09-30T09:00:19.775Z,82.02
2023-09-30T09:01:19.771Z,81.92
2023-09-30T09:02:19.732Z,81.21
2023-09-30T09:03:19.781Z,81.01
2023-09-30T09:04:19.811Z,81.17
2023-09-30T09:05:19.682Z,80.97
2023-09-30T09:06:19.694Z,80.77
2023-09-30T09:07:19.658Z,80.26
2023-09-30T09:08:19.661Z,80.26
2023-09-30T09:09:19.688Z,80.46
2023-09-30T09:10:19.661Z,80.57
2023-09-30T09:11:19.623Z,80.43
2023-09-30T09:12:19.629Z,80.53
2023-09-30T09:13:19.599Z,80.02
2023-09-30T09:14:19.580Z,79.72
2023-09-30T09:15:19.656Z,79.52
2023-09-30T09:16:19.717Z,79.32
2023-09-30T09:17:19.610Z,79.62
2023-09-30T09:18:19.565Z,79.41
2023-09-30T09:19:19.526Z,79.01
2023-09-30T09:20:19.534Z,78.61
2023-09-30T09:21:19.563Z,78.91
2023-09-30T09:22:19.486Z,79.01
2023-09-30T09:23:19.492Z,79.11
2023-09-30T09:24:19.478Z,79.21
2023-09-30T09:25:19.500Z,79.28
2023-09-30T09:26:19.445Z,79.08
2023-09-30T09:27:19.501Z,79.08
2023-09-30T09:28:19.405Z,79.28
2023-09-30T09:29:19.416Z,78.88
2023-09-30T09:30:19.654Z,78.47
2023-09-30T09:31:19.491Z,78.33
2023-09-30T09:32:19.358Z,78.43
2023-09-30T09:33:19.356Z,78.03
2023-09-30T09:34:19.336Z,77.42
2023-09-30T09:35:19.338Z,77.12
2023-09-30T09:36:19.355Z,76.42
2023-09-30T09:37:19.340Z,76.28
2023-09-30T09:38:19.292Z,76.68
2023-09-30T09:39:19.330Z,75.47
2023-09-30T09:40:19.272Z,75.37
2023-09-30T09:41:19.306Z,75.81
2023-09-30T09:42:19.249Z,76.01
2023-09-30T09:43:19.244Z,75.71
2023-09-30T09:44:19.231Z,76.01
2023-09-30T09:45:19.217Z,75.98
2023-09-30T09:46:19.273Z,75.67
2023-09-30T09:47:19.208Z,75.57
2023-09-30T09:48:19.168Z,75.87
2023-09-30T09:49:19.211Z,75.27
2023-09-30T09:50:19.160Z,75.74
2023-09-30T09:51:19.164Z,75.13
2023-09-30T09:52:19.233Z,74.83
2023-09-30T09:53:19.124Z,74.52
2023-09-30T09:54:19.110Z,73.62
2023-09-30T09:55:19.127Z,73.82
2023-09-30T09:56:19.109Z,73.92
2023-09-30T09:57:19.083Z,73.68
2023-09-30T09:58:19.061Z,73.48
2023-09-30T09:59:19.054Z,72.78
2023-09-30T10:00:19.060Z,73.38
2023-09-30T10:01:19.120Z,73.25
2023-09-30T10:02:19.150Z,73.45
2023-09-30T10:03:19.049Z,73.45
2023-09-30T10:04:18.990Z,72.85
2023-09-30T10:05:19.036Z,71.73
2023-09-30T10:06:19.022Z,72.74
2023-09-30T10:07:18.969Z,71.44
2023-09-30T10:08:18.938Z,71.33
2023-09-30T10:09:18.967Z,71.53
2023-09-30T10:10:18.926Z,71.13
2023-09-30T10:11:18.927Z,71.23
2023-09-30T10:12:18.927Z,70.93
2023-09-30T10:13:18.893Z,71.23
2023-09-30T10:14:18.879Z,71.84
2023-09-30T10:15:18.877Z,70.59
2023-09-30T10:16:18.869Z,69.79
2023-09-30T10:17:18.868Z,70.12
2023-09-30T10:18:18.840Z,70.19
2023-09-30T10:19:19.028Z,69.69
2023-09-30T10:20:18.812Z,69.59
2023-09-30T10:21:18.846Z,69.89
2023-09-30T10:22:18.816Z,69.59
2023-09-30T10:23:18.987Z,68.44
2023-09-30T10:24:18.758Z,68.21
2023-09-30T10:25:18.801Z,67.81
2023-09-30T10:26:18.754Z,66.77
2023-09-30T10:27:18.746Z,67.38
2023-09-30T10:28:18.741Z,67.47
2023-09-30T10:29:18.721Z,67.47
2023-09-30T10:30:18.719Z,67.18
2023-09-30T10:31:18.839Z,67.38
2023-09-30T10:32:18.699Z,67.07
2023-09-30T10:33:18.677Z,66.77
2023-09-30T10:34:18.639Z,66.37
2023-09-30T10:35:18.642Z,65.77
2023-09-30T10:36:18.628Z,65.36
2023-09-30T10:37:18.633Z,65.67
2023-09-30T10:38:18.595Z,66.40
2023-09-30T10:39:18.593Z,67.21
2023-09-30T10:40:18.599Z,67.11
2023-09-30T10:41:18.642Z,66.71
2023-09-30T10:42:18.573Z,67.51
2023-09-30T10:43:18.556Z,67.11
2023-09-30T10:44:18.524Z,67.41
2023-09-30T10:45:19.546Z,67.00
2023-09-30T10:46:18.563Z,65.97
2023-09-30T10:47:18.528Z,65.47
2023-09-30T10:48:18.482Z,65.50
2023-09-30T10:49:18.507Z,65.56
2023-09-30T10:50:18.460Z,65.59
2023-09-30T10:51:18.454Z,65.80
2023-09-30T10:52:18.457Z,65.90
2023-09-30T10:53:18.441Z,66.00
2023-09-30T10:54:18.411Z,65.93
2023-09-30T10:55:18.411Z,66.63
2023-09-30T10:56:18.378Z,66.30
2023-09-30T10:57:18.408Z,65.87
2023-09-30T10:58:18.361Z,64.63
2023-09-30T10:59:18.366Z,64.10
2023-09-30T11:33:59.233Z,60.85
2023-09-30T11:35:00.171Z,60.88
2023-09-30T11:36:00.210Z,61.25
2023-09-30T11:37:00.190Z,61.25
2023-09-30T11:38:00.127Z,61.66
2023-09-30T11:39:02.772Z,61.55
2023-09-30T11:40:00.206Z,61.35
2023-09-30T11:41:00.085Z,60.25
2023-09-30T11:42:00.116Z,61.05
2023-09-30T11:43:00.110Z,60.96
2023-09-30T11:44:00.060Z,60.15
2023-09-30T11:45:00.034Z,59.52
2023-09-30T11:46:00.125Z,59.62
2023-09-30T11:47:00.063Z,59.29
2023-09-30T11:48:00.032Z,58.72
2023-09-30T11:49:00.370Z,59.12
2023-09-30T11:49:59.986Z,58.92
2023-09-30T11:51:00.000Z,58.81
2023-09-30T11:52:00.135Z,59.12
2023-09-30T11:52:59.945Z,58.92
2023-09-30T11:53:59.941Z,59.34
2023-09-30T11:54:59.949Z,58.75
2023-09-30T11:55:59.953Z,57.54
2023-09-30T11:56:59.898Z,58.04
2023-09-30T11:57:59.986Z,57.44
2023-09-30T11:59:00.231Z,58.14
2023-09-30T11:59:59.872Z,57.91
2023-09-30T12:00:59.882Z,57.71
2023-09-30T12:02:13.810Z,57.91
2023-09-30T12:02:59.922Z,57.81
2023-09-30T12:03:59.879Z,56.03
2023-09-30T12:04:59.827Z,57.41
2023-09-30T12:05:59.803Z,56.61
2023-09-30T12:06:59.819Z,56.51
2023-09-30T12:07:59.814Z,57.01
2023-09-30T12:09:00.070Z,56.54
2023-09-30T12:09:59.812Z,56.74
2023-09-30T12:10:59.744Z,57.14
2023-09-30T12:11:59.820Z,57.64
2023-09-30T12:12:59.761Z,57.31
2023-09-30T12:13:59.708Z,57.01
2023-09-30T12:14:59.728Z,56.81
2023-09-30T12:15:59.745Z,57.01
2023-09-30T12:16:59.767Z,56.78
2023-09-30T12:17:59.716Z,56.28
2023-09-30T12:18:59.969Z,55.20
2023-09-30T12:19:59.645Z,56.10
2023-09-30T12:20:59.622Z,55.68
2023-09-30T12:21:59.700Z,56.10
2023-09-30T12:22:59.636Z,55.20
2023-09-30T12:23:59.597Z,55.10
2023-09-30T12:24:59.626Z,55.20
2023-09-30T12:26:12.928Z,55.71
2023-09-30T12:26:59.575Z,55.51
2023-09-30T12:27:59.623Z,55.00
2023-09-30T12:28:59.883Z,54.30
2023-09-30T12:29:59.532Z,53.90
2023-09-30T12:30:59.562Z,54.13
2023-09-30T12:31:59.576Z,54.83
2023-09-30T12:32:59.564Z,55.33
2023-09-30T12:33:59.543Z,54.93
2023-09-30T12:34:59.475Z,55.33
2023-09-30T12:35:59.456Z,55.10
2023-09-30T12:36:59.513Z,54.90
2023-09-30T12:38:00.035Z,55.10
2023-09-30T12:38:59.652Z,54.70
2023-09-30T12:39:59.491Z,55.30
2023-09-30T12:40:59.411Z,55.60
2023-09-30T12:41:59.385Z,55.71
2023-09-30T12:42:59.447Z,55.91
2023-09-30T12:43:59.373Z,54.80
2023-09-30T12:44:59.400Z,54.80
2023-09-30T12:45:59.433Z,55.10
2023-09-30T12:47:00.555Z,55.00
2023-09-30T12:47:59.411Z,55.30
2023-09-30T12:48:59.585Z,55.30
2023-09-30T12:49:59.291Z,54.60
2023-09-30T12:50:59.286Z,54.90
2023-09-30T12:51:59.332Z,55.51
2023-09-30T12:52:59.294Z,54.50
2023-09-30T12:53:59.267Z,54.80
2023-09-30T12:54:59.274Z,54.50
2023-09-30T12:55:59.238Z,54.80
2023-09-30T12:56:59.229Z,54.80
2023-09-30T12:57:59.253Z,54.58
2023-09-30T12:58:59.502Z,53.97
2023-09-30T12:59:59.184Z,54.07
2023-09-30T13:01:08.071Z,53.87
2023-09-30T13:01:59.185Z,53.87
2023-09-30T13:02:59.199Z,53.47
2023-09-30T13:03:59.224Z,54.27
2023-09-30T13:04:59.195Z,54.00
2023-09-30T13:05:59.124Z,54.20
2023-09-30T13:06:59.156Z,54.80
2023-09-30T13:07:59.093Z,55.10
2023-09-30T13:08:59.320Z,55.20
2023-09-30T13:09:59.145Z,54.70
2023-09-30T13:10:59.105Z,55.20
2023-09-30T13:11:59.055Z,55.40
2023-09-30T13:12:59.084Z,55.10
2023-09-30T13:13:59.078Z,55.20
2023-09-30T13:14:59.030Z,55.60
2023-09-30T13:15:59.139Z,55.30
2023-09-30T13:16:59.050Z,55.60
2023-09-30T13:17:59.044Z,55.80
2023-09-30T13:18:59.212Z,55.91
2023-09-30T13:19:58.994Z,55.91
2023-09-30T13:20:58.962Z,56.08
2023-09-30T13:21:58.980Z,56.08
2023-09-30T13:22:58.952Z,54.88
2023-09-30T13:23:58.930Z,54.38
2023-09-30T13:24:59.072Z,53.87
2023-09-30T13:25:58.896Z,53.87
2023-09-30T13:26:58.904Z,54.38